createdAt,value
2023-03-23T15:58:27.335Z,3.33
2023-03-23T16:00:31.323Z,4.20
2023-03-23T16:02:37.244Z,4.40
2023-03-23T16:04:43.210Z,4.40
2023-03-23T16:06:49.104Z,4.63
2023-03-23T16:08:54.028Z,4.40
2023-03-23T16:11:00.197Z,5.10
2023-03-23T16:13:05.293Z,4.93
2023-03-23T16:15:09.878Z,5.20
2023-03-23T16:17:15.923Z,4.57
2023-03-23T16:19:24.412Z,5.10
2023-03-23T16:21:28.616Z,4.70
2023-03-23T16:23:32.392Z,5.30
2023-03-23T16:25:39.462Z,6.40
2023-03-23T16:27:43.431Z,5.50
2023-03-23T16:30:02.854Z,4.90
2023-03-23T16:32:07.835Z,4.83
2023-03-23T16:34:11.564Z,4.63
2023-03-23T16:36:16.918Z,4.80
2023-03-23T16:38:20.815Z,4.13
2023-03-23T16:40:24.816Z,5.10
2023-03-23T16:42:28.513Z,4.73
2023-03-23T16:44:32.149Z,4.37
2023-03-23T16:46:35.821Z,4.60
2023-03-23T16:48:39.507Z,4.80
2023-03-23T16:50:44.025Z,5.57
2023-03-23T16:52:49.234Z,6.50
2023-03-23T16:54:52.869Z,6.03
2023-03-23T16:56:56.479Z,6.80
2023-03-23T16:59:00.198Z,6.40
2023-03-23T17:01:03.956Z,6.23
2023-03-23T17:03:08.124Z,6.37
2023-03-23T17:05:11.977Z,4.73
2023-03-23T17:07:16.008Z,5.43
2023-03-23T17:09:21.010Z,4.80
2023-03-23T17:11:24.591Z,4.67
2023-03-23T17:13:28.516Z,4.40
2023-03-23T17:15:32.296Z,5.50
2023-03-23T17:17:36.039Z,4.93
2023-03-23T17:19:39.895Z,5.40
2023-03-23T17:21:43.832Z,5.27
2023-03-23T17:23:47.545Z,5.30
2023-03-23T17:25:53.565Z,5.23
2023-03-23T17:27:57.290Z,5.10
2023-03-23T17:30:10.895Z,8.33
2023-03-23T17:32:14.651Z,12.50
2023-03-23T17:34:22.163Z,15.93
2023-03-23T17:36:25.907Z,22.00
2023-03-23T17:38:30.039Z,27.27
2023-03-23T17:40:33.629Z,54.90
2023-03-23T17:42:38.946Z,80.13
2023-03-23T17:44:43.185Z,75.17
2023-03-23T17:46:46.732Z,54.43
2023-03-23T17:48:50.567Z,28.20
2023-03-23T17:50:57.586Z,24.07
2023-03-23T17:53:01.736Z,15.57
2023-03-23T17:55:05.549Z,12.77
2023-03-23T17:57:09.201Z,12.67
2023-03-23T17:59:14.346Z,12.67
2023-03-23T18:01:17.993Z,11.30
2023-03-23T18:03:21.748Z,10.47
2023-03-23T18:05:28.013Z,11.13
2023-03-23T18:07:32.110Z,11.03
2023-03-23T18:09:35.833Z,10.87
2023-03-23T18:11:39.546Z,9.90
2023-03-23T18:13:47.230Z,11.37
2023-03-23T18:15:52.317Z,12.30
2023-03-23T18:17:56.118Z,13.83
2023-03-23T18:19:59.670Z,14.30
2023-03-23T18:22:03.403Z,15.00
2023-03-23T18:24:08.042Z,12.67
2023-03-23T18:26:12.607Z,11.30
2023-03-23T18:28:17.669Z,10.50
2023-03-23T18:30:21.518Z,9.20
2023-03-23T18:32:26.897Z,8.93
2023-03-23T18:34:31.684Z,8.20
2023-03-23T18:36:35.732Z,11.63
2023-03-23T18:38:40.625Z,15.90
2023-03-23T18:40:44.900Z,14.20
2023-03-23T18:42:49.216Z,10.60
2023-03-23T18:44:52.742Z,10.13
2023-03-23T18:46:56.339Z,14.20
2023-03-23T18:49:01.206Z,16.27
2023-03-23T18:51:04.751Z,12.87
2023-03-23T18:53:08.590Z,12.10
2023-03-23T18:55:12.291Z,14.13
2023-03-23T18:57:16.049Z,11.70
2023-03-23T18:59:19.815Z,11.70
2023-03-23T19:01:23.611Z,9.43
2023-03-23T19:03:27.247Z,9.30
2023-03-23T19:05:32.474Z,9.00
2023-03-23T19:07:36.022Z,8.40
2023-03-23T19:09:41.127Z,9.00
2023-03-23T19:11:44.692Z,10.33
2023-03-23T19:14:00.370Z,8.50
2023-03-23T19:16:05.835Z,9.00
2023-03-23T19:18:09.798Z,8.63
2023-03-23T19:20:16.058Z,9.03
2023-03-23T19:22:24.932Z,9.63
2023-03-23T19:24:30.413Z,9.87
2023-03-23T19:26:37.571Z,9.27
2023-03-23T19:29:21.461Z,8.10
2023-03-23T19:31:05.311Z,7.73
2023-03-23T19:33:09.091Z,7.90
2023-03-23T19:35:12.808Z,8.37
2023-03-23T19:37:17.491Z,8.50
2023-03-23T19:39:22.729Z,7.13
2023-03-23T19:41:29.037Z,8.40
2023-03-23T19:43:33.687Z,7.23
2023-03-23T19:45:37.358Z,7.13
2023-03-23T19:47:41.193Z,7.77
2023-03-23T19:49:44.829Z,6.20
2023-03-23T19:51:49.039Z,7.07
2023-03-23T19:53:52.900Z,7.20
2023-03-23T19:55:58.214Z,7.30
2023-03-23T19:58:01.929Z,6.80
2023-03-23T20:00:07.651Z,7.70
2023-03-23T20:02:12.653Z,8.90
2023-03-23T20:04:18.072Z,7.17
2023-03-23T20:06:21.903Z,8.20
2023-03-23T20:08:25.678Z,8.70
2023-03-23T20:10:30.038Z,9.23
2023-03-23T20:12:35.503Z,11.10
2023-03-23T20:14:45.139Z,10.20
2023-03-23T20:16:48.958Z,8.90
2023-03-23T20:18:53.663Z,9.47
2023-03-23T20:21:02.524Z,7.80
2023-03-23T20:23:07.978Z,7.97
2023-03-23T20:25:12.265Z,7.80
2023-03-23T20:27:16.288Z,7.87
2023-03-23T20:29:21.455Z,7.20
2023-03-23T20:31:26.394Z,7.50
2023-03-23T20:33:32.149Z,8.30
2023-03-23T20:35:35.669Z,8.02
2023-03-23T20:37:40.038Z,7.70
2023-03-23T20:39:43.824Z,7.10
2023-03-23T20:41:48.405Z,7.00
2023-03-23T20:43:52.083Z,7.77
2023-03-23T20:45:57.581Z,7.30
2023-03-23T20:48:02.188Z,7.80
2023-03-23T20:50:07.327Z,6.53
2023-03-23T20:52:12.386Z,7.30
2023-03-23T20:54:16.608Z,8.70
2023-03-23T20:56:21.346Z,8.00
2023-03-23T20:58:25.612Z,8.00
2023-03-23T21:00:29.486Z,7.93
2023-03-23T21:02:35.164Z,7.47
2023-03-23T21:04:40.141Z,8.07
2023-03-23T21:06:44.315Z,8.27
2023-03-23T21:08:47.946Z,7.77
2023-03-23T21:10:52.217Z,7.75
2023-03-23T21:12:56.885Z,9.07
2023-03-23T21:15:00.813Z,7.00
2023-03-23T21:17:04.432Z,7.40
2023-03-23T21:19:09.720Z,7.25
2023-03-23T21:21:15.004Z,7.35
2023-03-23T21:23:19.614Z,7.85
2023-03-23T21:25:34.245Z,8.10
2023-03-23T21:27:38.895Z,7.97
2023-03-23T21:29:42.565Z,7.70
2023-03-23T21:31:50.136Z,7.70
2023-03-23T21:33:56.165Z,7.53
2023-03-23T21:36:01.360Z,8.00
2023-03-23T21:38:05.436Z,7.80
2023-03-23T21:40:13.455Z,8.70
2023-03-23T21:42:17.043Z,7.87
2023-03-23T21:44:20.638Z,8.25
2023-03-23T21:46:24.344Z,7.93
2023-03-23T21:48:28.609Z,7.73
2023-03-23T21:50:35.594Z,7.85
2023-03-23T21:52:41.984Z,8.63
2023-03-23T21:54:45.771Z,8.00
2023-03-23T21:56:49.710Z,7.85
2023-03-23T21:58:53.635Z,7.43
2023-03-23T22:00:59.206Z,7.68
2023-03-23T22:03:04.759Z,7.20
2023-03-23T22:05:08.715Z,7.30
2023-03-23T22:07:12.912Z,7.70
2023-03-23T22:09:18.499Z,7.45
2023-03-23T22:11:23.388Z,7.17
2023-03-23T22:13:28.957Z,8.20
2023-03-23T22:15:32.815Z,7.93
2023-03-23T22:17:38.215Z,8.50
2023-03-23T22:19:42.427Z,8.75
2023-03-23T22:21:46.167Z,9.53
2023-03-23T22:23:50.097Z,8.30
2023-03-23T22:25:56.081Z,7.72
2023-03-23T22:27:59.886Z,9.27
2023-03-23T22:30:03.691Z,7.75
2023-03-23T22:32:07.580Z,8.10
2023-03-23T22:34:12.564Z,8.60
2023-03-23T22:36:16.489Z,8.68
2023-03-23T22:38:20.167Z,7.65
2023-03-23T22:40:24.995Z,7.68
2023-03-23T22:42:30.125Z,8.52
2023-03-23T22:44:34.040Z,7.38
2023-03-23T22:46:37.700Z,8.17
2023-03-23T22:48:42.025Z,7.40
2023-03-23T22:50:46.740Z,8.83
2023-03-23T22:52:50.604Z,8.47
2023-03-23T22:54:54.356Z,8.40
2023-03-23T22:56:58.203Z,7.00
2023-03-23T22:59:03.991Z,9.33
2023-03-23T23:01:09.259Z,7.60
2023-03-23T23:03:13.563Z,8.07
2023-03-23T23:05:17.280Z,9.33
2023-03-23T23:07:22.109Z,9.63
2023-03-23T23:09:25.712Z,9.83
2023-03-23T23:11:29.484Z,11.70
2023-03-23T23:13:33.743Z,11.63
2023-03-23T23:15:38.959Z,10.00
2023-03-23T23:17:43.324Z,9.77
2023-03-23T23:19:46.975Z,8.50
2023-03-23T23:21:51.090Z,8.57
2023-03-23T23:23:55.168Z,8.30
2023-03-23T23:25:58.789Z,8.00
2023-03-23T23:28:04.305Z,8.10
2023-03-23T23:30:08.617Z,7.80
2023-03-23T23:32:13.786Z,8.57
2023-03-23T23:34:17.623Z,10.13
2023-03-23T23:36:22.773Z,11.63
2023-03-23T23:38:26.465Z,13.20
2023-03-23T23:40:31.925Z,16.77
2023-03-23T23:42:35.508Z,20.58
2023-03-23T23:44:39.227Z,15.90
2023-03-23T23:46:42.845Z,22.33
2023-03-23T23:48:48.026Z,29.07
2023-03-23T23:50:52.338Z,22.10
2023-03-23T23:52:56.359Z,22.60
2023-03-23T23:55:00.013Z,20.02
2023-03-23T23:57:03.800Z,21.90
2023-03-23T23:59:07.507Z,19.43
